| time (UTC) | temp F | wind direction | speed MPH | gust MPH | rain 1hr in | rain 24hr in | rain mn in | humidity % | barometer mb |
| 20260507171504 | 64 | 268 | 0.0 | 1.0 | 0.00 | 0.00 | 0.00 | 62 | 1013.3 |
| 20260507170128 | 63 | 298 | 0.0 | 2.0 | 0.00 | 0.00 | 0.00 | 62 | 1013.3 |
| 20260507164556 | 63 | 306 | 1.0 | 2.0 | 0.00 | 0.00 | 0.00 | 60 | 1013.2 |
| 20260507163017 | 61 | 257 | 0.0 | 2.0 | 0.00 | 0.00 | 0.00 | 61 | 1013.3 |
| 20260507161543 | 62 | 321 | 2.0 | 5.0 | 0.00 | 0.00 | 0.00 | 60 | 1013.3 |
| 20260507160027 | 64 | 138 | 0.0 | 2.0 | 0.00 | 0.00 | 0.00 | 58 | 1013.3 |
| 20260507154542 | 64 | 220 | 0.0 | 2.0 | 0.00 | 0.06 | 0.00 | 61 | 1013.3 |
| 20260507153005 | 63 | 264 | 0.0 | 2.0 | 0.00 | 0.06 | 0.00 | 66 | 1013.2 |
| 20260507151528 | 61 | 147 | 1.0 | 4.0 | 0.00 | 0.06 | 0.00 | 67 | 1013.0 |
| 20260507144551 | 58 | 71 | 0.0 | 5.0 | 0.00 | 0.39 | 0.00 | 74 | 1013.0 |
| 20260507143030 | 58 | 79 | 1.0 | 2.0 | 0.00 | 0.39 | 0.00 | 77 | 1013.1 |
| 20260507141602 | 57 | 176 | 0.0 | 3.0 | 0.00 | 0.39 | 0.00 | 78 | 1013.4 |
| 20260507140032 | 56 | 250 | 0.0 | 3.0 | 0.00 | 0.39 | 0.00 | 80 | 1013.5 |
| 20260507134502 | 55 | 264 | 3.0 | 6.0 | 0.00 | 0.61 | 0.00 | 83 | 1013.7 |
| 20260507133030 | 56 | 283 | 3.0 | 6.0 | 0.00 | 0.61 | 0.00 | 82 | 1013.6 |
| 20260507131557 | 56 | 307 | 0.0 | 4.0 | 0.00 | 0.61 | 0.00 | 84 | 1013.4 |
| 20260507130040 | 57 | 219 | 1.0 | 9.0 | 0.00 | 0.61 | 0.00 | 81 | 1013.5 |
| 20260507124518 | 59 | 233 | 7.0 | 16.0 | 0.00 | 0.62 | 0.00 | 78 | 1013.4 |
| 20260507123046 | 61 | 236 | 6.0 | 12.0 | 0.00 | 0.62 | 0.00 | 68 | 1012.9 |
| 20260507121516 | 62 | 253 | 4.0 | 12.0 | 0.00 | 0.62 | 0.00 | 66 | 1012.5 |
| 20260507120049 | 63 | 227 | 4.0 | 12.0 | 0.00 | 0.62 | 0.00 | 64 | 1012.4 |
| 20260507114502 | 65 | 300 | 2.0 | 8.0 | 0.00 | 0.62 | 0.00 | 59 | 1012.3 |
| 20260507113035 | 66 | 243 | 3.0 | 8.0 | 0.00 | 0.62 | 0.00 | 58 | 1012.4 |
| 20260507111504 | 67 | 248 | 0.0 | 6.0 | 0.00 | 0.62 | 0.00 | 56 | 1012.4 |
| 20260507110043 | 66 | 234 | 2.0 | 5.0 | 0.00 | 0.62 | 0.00 | 55 | 1012.5 |
| 20260507104506 | 65 | 297 | 3.0 | 7.0 | 0.00 | 0.63 | 0.00 | 63 | 1012.8 |
| 20260507103038 | 64 | 83 | 1.0 | 6.0 | 0.00 | 0.63 | 0.00 | 63 | 1013.0 |
| 20260507101508 | 63 | 242 | 2.0 | 5.0 | 0.00 | 0.63 | 0.00 | 71 | 1013.1 |
| 20260507100042 | 64 | 331 | 0.0 | 4.0 | 0.00 | 0.63 | 0.00 | 70 | 1013.3 |
| 20260507094510 | 62 | 102 | 0.0 | 6.0 | 0.00 | 0.66 | 0.00 | 74 | 1013.3 |
| 20260507093039 | 61 | 186 | 2.0 | 6.0 | 0.00 | 0.66 | 0.00 | 73 | 1013.4 |
| 20260507091504 | 60 | 161 | 0.0 | 2.0 | 0.00 | 0.66 | 0.00 | 76 | 1013.4 |
| 20260507090039 | 59 | 184 | 1.0 | 3.0 | 0.00 | 0.66 | 0.00 | 78 | 1013.5 |
| 20260507084513 | 58 | 193 | 3.0 | 5.0 | 0.00 | 0.76 | 0.00 | 80 | 1013.5 |
| 20260507083042 | 57 | 213 | 0.0 | 3.0 | 0.00 | 0.76 | 0.00 | 79 | 1013.5 |
| 20260507081524 | 57 | 200 | 3.0 | 5.0 | 0.00 | 0.76 | 0.00 | 78 | 1013.4 |
| 20260507080101 | 56 | 84 | 0.0 | 3.0 | 0.00 | 0.76 | 0.00 | 82 | 1013.5 |
| 20260507074527 | 55 | 63 | 1.0 | 7.0 | 0.00 | 0.95 | 0.00 | 82 | 1013.4 |
| 20260507073058 | 55 | 8 | 2.0 | 5.0 | 0.00 | 0.95 | 0.00 | 85 | 1013.5 |
| 20260507071520 | 55 | 330 | 0.0 | 3.0 | 0.00 | 0.95 | 0.00 | 90 | 1013.4 |
| 20260507070109 | 52 | 34 | 1.0 | 3.0 | 0.00 | 0.95 | 0.00 | 91 | 1013.3 |
| 20260507064532 | 52 | 68 | 2.0 | 3.0 | 0.00 | 0.98 | 0.00 | 93 | 1013.3 |
| 20260507063006 | 51 | 61 | 1.0 | 2.0 | 0.00 | 0.98 | 0.00 | 94 | 1013.4 |
| 20260507061535 | 51 | 6 | 0.0 | 1.0 | 0.00 | 0.98 | 0.00 | 95 | 1013.3 |
| 20260507060004 | 51 | 97 | 0.0 | 1.0 | 0.00 | 0.98 | 0.00 | 95 | 1013.2 |
| 20260507054541 | 51 | 61 | 0.0 | 2.0 | 0.00 | 0.98 | 0.00 | 96 | 1013.2 |
| 20260507053007 | 50 | 289 | 0.0 | 1.0 | 0.00 | 0.98 | 0.00 | 96 | 1013.0 |
| 20260507051534 | 50 | 289 | 0.0 | 2.0 | 0.00 | 0.98 | 0.00 | 96 | 1012.9 |
| 20260507044530 | 50 | 109 | 0.0 | 1.0 | 0.00 | 0.98 | 0.00 | 96 | 1012.5 |
| 20260507043006 | 50 | 40 | 0.0 | 1.0 | 0.00 | 0.98 | 0.00 | 96 | 1012.4 |
| 20260507041544 | 49 | 40 | 0.0 | 0.0 | 0.00 | 0.98 | 0.00 | 96 | 1012.3 |
| 20260507040020 | 49 | 40 | 0.0 | 2.0 | 0.00 | 0.98 | 0.00 | 96 | 1012.2 |
| 20260507034557 | 49 | 21 | 0.0 | 1.0 | 0.00 | 0.98 | 0.00 | 96 | 1012.2 |
| 20260507033035 | 49 | 340 | 0.0 | 1.0 | 0.00 | 0.98 | 0.00 | 96 | 1012.1 |
| 20260507031522 | 49 | 44 | 0.0 | 2.0 | 0.00 | 0.98 | 0.00 | 96 | 1012.0 |
| 20260507030011 | 49 | 302 | 0.0 | 0.0 | 0.00 | 0.98 | 0.00 | 96 | 1012.1 |
| 20260507024552 | 49 | 302 | 0.0 | 0.0 | 0.00 | 0.98 | 0.00 | 96 | 1012.1 |
| 20260507023040 | 49 | 302 | 0.0 | 1.0 | 0.00 | 0.98 | 0.00 | 96 | 1012.1 |
| 20260507021525 | 50 | 302 | 0.0 | 1.0 | 0.00 | 0.98 | 0.00 | 96 | 1012.2 |
| 20260507020019 | 49 | 302 | 0.0 | 1.0 | 0.00 | 0.98 | 0.00 | 96 | 1012.1 |
| 20260507014556 | 49 | 302 | 0.0 | 0.0 | 0.00 | 0.98 | 0.00 | 96 | 1012.0 |
| 20260507013046 | 48 | 302 | 0.0 | 1.0 | 0.00 | 0.98 | 0.00 | 96 | 1011.9 |
| 20260507011522 | 49 | 128 | 0.0 | 1.0 | 0.00 | 0.98 | 0.00 | 96 | 1011.9 |
| 20260507010109 | 49 | 127 | 0.0 | 1.0 | 0.00 | 0.98 | 0.00 | 96 | 1011.9 |
| 20260507004549 | 49 | 128 | 0.0 | 1.0 | 0.00 | 0.98 | 0.00 | 95 | 1011.9 |
| 20260507003032 | 50 | 128 | 0.0 | 1.0 | 0.00 | 0.98 | 0.00 | 95 | 1012.0 |
| 20260507001507 | 50 | 257 | 0.0 | 1.0 | 0.00 | 0.98 | 0.00 | 95 | 1012.0 |
| 20260507000053 | 50 | 347 | 0.0 | 1.0 | 0.00 | 0.98 | 0.00 | 96 | 1012.0 |
| 20260506234530 | 50 | 332 | 0.0 | 1.0 | 0.00 | 0.98 | 0.00 | 96 | 1012.0 |
| 20260506233013 | 50 | 328 | 0.0 | 1.0 | 0.00 | 0.98 | 0.00 | 95 | 1011.9 |
| 20260506231619 | 50 | 328 | 0.0 | 1.0 | 0.00 | 0.98 | 0.00 | 95 | 1012.0 |
| 20260506230044 | 50 | 328 | 0.0 | 1.0 | 0.00 | 0.98 | 0.00 | 95 | 1012.0 |
| 20260506224528 | 50 | 328 | 0.0 | 0.0 | 0.00 | 0.98 | 0.00 | 95 | 1012.1 |
| 20260506223014 | 51 | 328 | 0.0 | 1.0 | 0.00 | 0.98 | 0.00 | 95 | 1012.0 |
| 20260506221600 | 51 | 328 | 0.0 | 0.0 | 0.00 | 0.98 | 0.00 | 95 | 1012.0 |
| 20260506220041 | 51 | 328 | 0.0 | 0.0 | 0.00 | 0.98 | 0.00 | 95 | 1011.9 |
| 20260506214521 | 51 | 328 | 0.0 | 2.0 | 0.00 | 0.98 | 0.98 | 95 | 1011.7 |
| 20260506213003 | 51 | 328 | 1.0 | 1.0 | 0.00 | 0.98 | 0.98 | 95 | 1011.7 |
| 20260506211549 | 51 | 304 | 0.0 | 2.0 | 0.00 | 0.98 | 0.98 | 95 | 1011.8 |
| 20260506210032 | 51 | 311 | 0.0 | 0.0 | 0.00 | 0.98 | 0.98 | 95 | 1011.7 |
| 20260506204516 | 51 | 311 | 0.0 | 0.0 | 0.00 | 0.98 | 0.98 | 95 | 1011.7 |
| 20260506203052 | 51 | 311 | 0.0 | 2.0 | 0.00 | 0.98 | 0.98 | 95 | 1011.5 |
| 20260506201643 | 52 | 306 | 0.0 | 1.0 | 0.00 | 0.98 | 0.98 | 95 | 1011.5 |
| 20260506200037 | 52 | 305 | 0.0 | 1.0 | 0.00 | 0.98 | 0.98 | 95 | 1011.4 |
| 20260506194505 | 53 | 262 | 0.0 | 1.0 | 0.00 | 1.00 | 0.98 | 94 | 1011.3 |
| 20260506193047 | 53 | 262 | 0.0 | 1.0 | 0.00 | 1.00 | 0.98 | 94 | 1011.2 |
| 20260506191535 | 54 | 4 | 0.0 | 1.0 | 0.00 | 1.00 | 0.98 | 94 | 1011.2 |
| 20260506190019 | 54 | 4 | 0.0 | 0.0 | 0.00 | 1.00 | 0.98 | 94 | 1011.1 |
| 20260506184625 | 54 | 4 | 0.0 | 1.0 | 0.00 | 1.06 | 0.98 | 94 | 1010.8 |
| 20260506183036 | 54 | 4 | 0.0 | 1.0 | 0.00 | 1.06 | 0.98 | 93 | 1010.8 |
| 20260506181516 | 55 | 4 | 0.0 | 0.0 | 0.00 | 1.06 | 0.98 | 93 | 1010.7 |
| 20260506180051 | 55 | 4 | 0.0 | 1.0 | 0.00 | 1.06 | 0.98 | 92 | 1010.5 |
| 20260506174532 | 56 | 108 | 0.0 | 1.0 | 0.00 | 1.09 | 0.98 | 92 | 1010.4 |
| 20260506173011 | 56 | 63 | 0.0 | 1.0 | 0.00 | 1.09 | 0.98 | 91 | 1010.4 |